LRTC - TULCEA / DELTA DUNARII

Compiled: 17:53:43 on 22/07/2018

Latest METAR/SPECI Reports

METAR LRTC 221730Z AUTO 21005KT 9999 -SHRA FEW047/// SCT140/// BKN200/// 23/21 Q1007=

Previous reports

METAR LRTC 221700Z AUTO 16005KT 9999 SHRA FEW049/// SCT075/// BKN110/// 23/21 Q1007=
METAR LRTC 221630Z 19006KT 160V230 9999 -SHRA BKN045CB 24/20 Q1007=
METAR LRTC 221600Z 20005KT 9999 SCT045CB 24/20 Q1007=
METAR LRTC 221530Z 15004KT 110V210 9999 SCT050CB 24/19 Q1007 RETS=

Latest TAF report

TAF AMD LRTC 221700Z 2217/2224 CNL=

Valid WARNINGS

No valid warnings for LRTC